Time;durP1;ratioP1;P1;durP2;ratioP2;P2;SDS_P1;SDS_P2;PMS_P1;PMS_P2;Temp;Humidity;BMP_temperature;BMP_pressure;BME280_temperature;BME280_humidity;BME280_pressure;Samples;Min_cycle;Max_cycle;Signal;HPM_P1;HPM_P2
2021/09/30 00:00:38;;;;;;;8.80;1.60;;;10.10;99.90;;;;;;5014413;28;20046;-95
2021/09/30 00:03:04;;;;;;;12.57;2.42;;;10.20;99.90;;;;;;5014673;28;20041;-95
2021/09/30 00:05:30;;;;;;;9.55;1.55;;;10.20;99.90;;;;;;5031360;28;20042;-92
2021/09/30 00:07:56;;;;;;;10.63;1.30;;;10.20;99.90;;;;;;5023918;28;20049;-96
2021/09/30 00:10:24;;;;;;;7.93;1.13;;;10.20;99.90;;;;;;5011669;28;20041;-96
2021/09/30 00:12:56;;;;;;;11.48;1.38;;;10.20;99.90;;;;;;5010017;28;20060;-96
2021/09/30 00:40:26;;;;;;;11.15;1.77;;;10.30;99.90;;;;;;5012758;28;20066;-94
2021/09/30 00:45:42;;;;;;;13.32;1.83;;;10.20;99.90;;;;;;4988936;28;20057;-95
2021/09/30 01:26:57;;;;;;;10.57;2.47;;;10.40;99.90;;;;;;5021742;28;20045;-96
2021/09/30 01:34:01;;;;;;;8.65;1.42;;;10.40;99.90;;;;;;4999339;28;20056;-96
2021/09/30 01:57:52;;;;;;;12.35;1.45;;;10.20;99.90;;;;;;5018430;28;20053;-96
2021/09/30 03:00:02;;;;;;;12.43;1.00;;;9.60;99.90;;;;;;4924877;29;20581;-96
2021/09/30 03:02:29;;;;;;;8.32;1.05;;;9.50;99.90;;;;;;4925427;29;20055;-96
2021/09/30 03:04:55;;;;;;;9.43;1.27;;;9.40;99.90;;;;;;4913056;29;20052;-96
2021/09/30 03:07:22;;;;;;;8.13;1.63;;;9.40;99.90;;;;;;4923897;29;20048;-96
2021/09/30 03:09:50;;;;;;;10.88;1.60;;;9.50;99.90;;;;;;4925666;29;20091;-96
2021/09/30 03:12:38;;;;;;;8.52;1.65;;;9.50;99.90;;;;;;4921398;29;20048;-92
2021/09/30 03:15:27;;;;;;;9.43;1.08;;;9.50;99.90;;;;;;4917323;29;20489;-96
2021/09/30 03:23:10;;;;;;;5.47;1.63;;;9.60;99.90;;;;;;4902849;29;20052;-96
2021/09/30 03:25:38;;;;;;;8.90;0.90;;;9.60;99.90;;;;;;4901170;29;20044;-96
2021/09/30 03:28:04;;;;;;;5.20;1.20;;;9.50;99.90;;;;;;4918171;29;20050;-95
2021/09/30 03:30:31;;;;;;;9.50;1.20;;;9.60;99.90;;;;;;4902163;29;20063;-96
2021/09/30 03:33:02;;;;;;;8.70;1.45;;;9.60;99.90;;;;;;4900389;29;20055;-96
2021/09/30 03:35:28;;;;;;;8.65;1.40;;;9.60;99.90;;;;;;4904302;29;20045;-96
2021/09/30 03:37:54;;;;;;;12.07;1.65;;;9.70;99.90;;;;;;4884975;29;20052;-96
2021/09/30 03:40:19;;;;;;;10.65;1.60;;;9.80;99.90;;;;;;4913287;29;20123;-92
2021/09/30 03:42:45;;;;;;;6.25;1.20;;;9.80;99.90;;;;;;4913243;29;20036;-93
2021/09/30 03:45:11;;;;;;;9.02;1.33;;;9.80;99.90;;;;;;4912825;29;20512;-94
2021/09/30 03:47:37;;;;;;;6.95;1.10;;;9.70;99.90;;;;;;4881125;29;20091;-95
2021/09/30 03:50:07;;;;;;;13.52;1.77;;;9.60;99.90;;;;;;4896928;29;20074;-92
2021/09/30 04:00:25;;;;;;;17.60;1.50;;;9.30;99.90;;;;;;4899178;29;20140;-95
2021/09/30 04:02:51;;;;;;;12.10;1.60;;;9.20;99.90;;;;;;4897892;29;20092;-95
2021/09/30 04:05:17;;;;;;;12.75;2.25;;;9.30;99.90;;;;;;4879223;29;20131;-94
2021/09/30 04:07:43;;;;;;;17.10;1.27;;;9.30;99.90;;;;;;4871638;29;20211;-94
2021/09/30 04:10:08;;;;;;;11.10;1.65;;;9.30;99.90;;;;;;4869696;29;20063;-96
2021/09/30 04:12:34;;;;;;;8.88;1.05;;;9.20;99.90;;;;;;4897380;29;20136;-95
2021/09/30 04:15:00;;;;;;;18.33;1.67;;;9.10;99.90;;;;;;4914095;29;20044;-94
2021/09/30 04:17:25;;;;;;;15.50;1.67;;;9.10;99.90;;;;;;4897284;29;20493;-95
2021/09/30 04:19:51;;;;;;;15.63;1.55;;;9.10;99.90;;;;;;4881748;29;20044;-95
2021/09/30 04:22:16;;;;;;;8.05;1.58;;;9.10;99.90;;;;;;4898073;29;20048;-96
2021/09/30 04:24:44;;;;;;;8.20;1.33;;;9.20;99.90;;;;;;4913304;29;20052;-96
2021/09/30 04:27:10;;;;;;;3.67;0.80;;;9.30;99.90;;;;;;4899014;29;20143;-95
2021/09/30 04:29:36;;;;;;;12.43;1.30;;;9.40;99.90;;;;;;4911899;29;20104;-94
2021/09/30 04:32:02;;;;;;;7.80;1.02;;;9.30;99.90;;;;;;4914106;29;20058;-95
2021/09/30 04:34:28;;;;;;;13.18;1.30;;;9.30;99.90;;;;;;4884135;29;20052;-94
2021/09/30 04:36:54;;;;;;;10.27;1.20;;;9.30;99.90;;;;;;4884952;29;20107;-96
2021/09/30 04:39:20;;;;;;;9.80;1.20;;;9.20;99.90;;;;;;4885012;29;20044;-96
2021/09/30 04:41:47;;;;;;;7.55;1.45;;;9.20;99.90;;;;;;4877512;29;20052;-95
2021/09/30 04:44:14;;;;;;;6.72;1.05;;;9.10;99.90;;;;;;4892875;29;20520;-95
2021/09/30 04:46:40;;;;;;;10.18;1.67;;;9.10;99.90;;;;;;4884657;29;20063;-94
2021/09/30 04:49:06;;;;;;;11.50;1.15;;;9.10;99.90;;;;;;4882451;29;20058;-94
2021/09/30 04:51:35;;;;;;;8.90;1.30;;;9.10;99.90;;;;;;4901616;29;20126;-94
2021/09/30 04:54:01;;;;;;;10.13;1.00;;;9.10;99.90;;;;;;4916591;29;20131;-93
2021/09/30 04:56:29;;;;;;;16.88;1.85;;;9.10;99.90;;;;;;4915741;29;20048;-93
2021/09/30 04:58:55;;;;;;;10.65;1.40;;;9.10;99.90;;;;;;4885225;29;20048;-95
2021/09/30 05:01:21;;;;;;;13.38;1.35;;;9.20;99.90;;;;;;4900678;29;20119;-94
2021/09/30 05:03:47;;;;;;;10.30;1.13;;;9.20;99.90;;;;;;4884206;29;20052;-95
2021/09/30 05:06:13;;;;;;;9.52;1.23;;;9.20;99.90;;;;;;4900579;29;20559;-94
2021/09/30 05:08:41;;;;;;;15.10;1.15;;;9.20;99.90;;;;;;4899501;29;20158;-95
2021/09/30 05:11:07;;;;;;;7.18;1.17;;;9.20;99.90;;;;;;4915794;29;20285;-93
2021/09/30 05:13:37;;;;;;;6.75;1.02;;;9.10;99.90;;;;;;4883974;29;20048;-93
2021/09/30 05:16:05;;;;;;;9.85;1.38;;;9.10;99.90;;;;;;4900205;29;20342;-93
2021/09/30 05:18:31;;;;;;;7.22;1.17;;;9.10;99.90;;;;;;4899740;29;20679;-94
2021/09/30 05:20:57;;;;;;;6.18;1.00;;;9.10;99.90;;;;;;4916930;29;20087;-95
2021/09/30 05:23:23;;;;;;;8.68;1.17;;;9.20;99.90;;;;;;4909413;29;20062;-95
2021/09/30 05:25:49;;;;;;;11.85;1.30;;;9.20;99.90;;;;;;4900051;29;20070;-95
2021/09/30 05:28:15;;;;;;;11.27;1.33;;;9.20;99.90;;;;;;4900050;29;20127;-93
2021/09/30 05:30:41;;;;;;;6.07;0.95;;;9.20;99.90;;;;;;4896169;29;20055;-96
2021/09/30 05:33:06;;;;;;;7.05;1.20;;;9.20;99.90;;;;;;4914932;29;20052;-96
2021/09/30 05:35:32;;;;;;;6.32;0.98;;;9.30;99.90;;;;;;4899339;29;20064;-96
2021/09/30 05:37:58;;;;;;;7.80;1.00;;;9.30;99.90;;;;;;4899309;29;20062;-95
2021/09/30 05:40:24;;;;;;;14.77;1.50;;;9.30;99.90;;;;;;4899091;29;20055;-95
2021/09/30 05:42:52;;;;;;;8.63;1.48;;;9.40;99.90;;;;;;4879210;29;20490;-94
2021/09/30 05:45:17;;;;;;;13.15;1.40;;;9.30;99.90;;;;;;4915637;29;20130;-95
2021/09/30 05:47:44;;;;;;;10.07;1.45;;;9.30;99.90;;;;;;4898767;29;20148;-94
2021/09/30 05:50:11;;;;;;;6.78;1.50;;;9.20;99.90;;;;;;4914909;29;20433;-95
2021/09/30 05:52:37;;;;;;;5.82;0.93;;;9.10;99.90;;;;;;4905900;29;20493;-94
2021/09/30 05:55:04;;;;;;;10.55;1.02;;;9.10;99.90;;;;;;4899201;29;20052;-93
2021/09/30 05:57:31;;;;;;;9.05;1.05;;;9.00;99.90;;;;;;4898482;29;20048;-93
2021/09/30 06:00:08;;;;;;;7.93;1.02;;;9.00;99.90;;;;;;4899128;29;20075;-94
2021/09/30 06:10:43;;;;;;;12.57;1.38;;;8.80;99.90;;;;;;4891374;29;20052;-91
2021/09/30 06:13:13;;;;;;;12.45;1.15;;;8.80;99.90;;;;;;4900520;29;20609;-96
2021/09/30 06:15:41;;;;;;;13.48;1.33;;;8.80;99.90;;;;;;4898963;29;20085;-94
2021/09/30 06:18:08;;;;;;;6.07;1.48;;;8.80;99.90;;;;;;4914969;29;20055;-96
2021/09/30 06:20:39;;;;;;;14.73;1.95;;;8.90;99.90;;;;;;4914625;29;20452;-94
2021/09/30 06:23:05;;;;;;;9.25;1.00;;;9.00;99.90;;;;;;4914866;29;20100;-96
2021/09/30 06:25:30;;;;;;;8.60;1.10;;;9.10;99.90;;;;;;4908698;29;20059;-92
2021/09/30 06:31:02;;;;;;;7.28;1.45;;;9.50;99.90;;;;;;5920655;23;20260;31
2021/09/30 06:33:30;;;;;;;9.02;1.30;;;9.50;99.90;;;;;;4939926;29;20066;-94
2021/09/30 06:35:56;;;;;;;12.45;1.27;;;9.60;99.90;;;;;;4927563;29;20090;-95
2021/09/30 06:38:22;;;;;;;8.00;1.13;;;9.70;99.90;;;;;;4917149;29;20043;-94
2021/09/30 06:40:47;;;;;;;6.15;1.30;;;9.70;99.90;;;;;;4902311;29;20048;-95
2021/09/30 06:43:14;;;;;;;8.43;1.23;;;9.60;99.90;;;;;;4902311;29;20132;-95
2021/09/30 06:45:40;;;;;;;14.70;1.30;;;9.50;99.90;;;;;;4886276;29;20551;-94
2021/09/30 06:48:06;;;;;;;10.98;1.42;;;9.40;99.90;;;;;;4917492;29;20051;-96
2021/09/30 06:50:32;;;;;;;10.40;1.38;;;9.40;99.90;;;;;;4902112;29;20583;-93
2021/09/30 06:53:01;;;;;;;6.97;1.02;;;9.30;99.90;;;;;;4916946;29;20131;-95
2021/09/30 06:55:27;;;;;;;6.93;1.00;;;9.30;99.90;;;;;;4901869;29;20067;-93
2021/09/30 06:57:52;;;;;;;8.20;1.65;;;9.30;99.90;;;;;;4901083;29;20047;-96
2021/09/30 07:00:19;;;;;;;13.40;2.30;;;9.30;99.90;;;;;;4885218;29;20044;-95
2021/09/30 07:02:46;;;;;;;13.57;1.75;;;9.30;99.90;;;;;;4907651;29;20036;-95
2021/09/30 07:05:13;;;;;;;14.50;2.33;;;9.30;99.90;;;;;;4901405;29;20150;-95
2021/09/30 07:07:40;;;;;;;9.63;1.10;;;9.30;99.90;;;;;;4916511;29;20068;-93
2021/09/30 07:10:09;;;;;;;11.50;1.60;;;9.40;99.90;;;;;;4916899;29;20056;-95
2021/09/30 07:12:36;;;;;;;9.73;1.45;;;9.40;99.90;;;;;;4900640;29;20135;-93
2021/09/30 07:15:02;;;;;;;15.38;1.65;;;9.40;99.90;;;;;;4916289;29;20080;-95
2021/09/30 07:17:28;;;;;;;15.05;2.83;;;9.50;99.90;;;;;;4916683;29;20118;-94
2021/09/30 07:19:55;;;;;;;13.32;2.25;;;9.50;99.90;;;;;;4914551;29;20124;-93
2021/09/30 07:22:20;;;;;;;12.18;2.45;;;9.60;99.90;;;;;;4915106;29;20047;-92
2021/09/30 07:24:46;;;;;;;18.77;2.25;;;9.70;99.90;;;;;;4898562;29;20047;-92
2021/09/30 07:27:12;;;;;;;11.73;1.85;;;9.70;99.90;;;;;;4899258;29;20043;-93
2021/09/30 07:29:38;;;;;;;10.38;1.48;;;9.80;99.90;;;;;;4914777;29;20082;-91
2021/09/30 07:32:05;;;;;;;10.05;2.10;;;9.80;99.90;;;;;;4915610;29;20052;-92
2021/09/30 07:34:33;;;;;;;10.95;1.55;;;9.90;99.90;;;;;;4884589;29;20064;-94
2021/09/30 07:36:59;;;;;;;12.20;1.50;;;10.00;99.90;;;;;;4879297;29;20071;-92
2021/09/30 07:39:25;;;;;;;7.57;1.25;;;10.10;99.90;;;;;;4898302;29;20074;-93
2021/09/30 07:41:51;;;;;;;11.20;2.15;;;10.20;99.90;;;;;;4897784;29;20505;-93
2021/09/30 07:44:17;;;;;;;16.45;1.90;;;10.30;99.90;;;;;;4900045;29;20556;-94
2021/09/30 07:46:44;;;;;;;14.13;2.63;;;10.50;99.90;;;;;;4880908;29;20506;-92
2021/09/30 07:49:12;;;;;;;17.90;2.50;;;10.50;99.90;;;;;;4901485;29;20057;-95
2021/09/30 07:51:38;;;;;;;23.55;2.10;;;10.60;99.90;;;;;;4902810;29;20063;-92
2021/09/30 07:54:05;;;;;;;11.43;1.90;;;10.60;99.90;;;;;;4899587;29;20489;-94
2021/09/30 07:56:32;;;;;;;17.25;1.60;;;10.70;99.90;;;;;;4899594;29;20052;-91
2021/09/30 07:58:58;;;;;;;17.95;2.10;;;10.80;99.90;;;;;;4916580;29;20048;-96
2021/09/30 08:01:23;;;;;;;14.25;2.00;;;10.80;99.90;;;;;;4904013;29;20051;-91
2021/09/30 08:03:52;;;;;;;14.88;1.50;;;10.90;99.90;;;;;;4914319;29;20055;-91
2021/09/30 08:06:19;;;;;;;13.68;1.77;;;11.00;99.90;;;;;;4914729;29;20114;-92
2021/09/30 08:08:45;;;;;;;15.35;2.15;;;11.00;99.90;;;;;;4913255;29;20046;-91
2021/09/30 08:11:11;;;;;;;11.40;1.50;;;11.00;99.90;;;;;;4883292;29;20084;-91
2021/09/30 08:13:37;;;;;;;17.10;3.28;;;11.10;99.90;;;;;;4899146;29;20082;-91
2021/09/30 08:16:04;;;;;;;15.05;1.52;;;11.10;99.90;;;;;;4914098;29;20039;-89
2021/09/30 08:18:30;;;;;;;10.10;2.53;;;11.20;99.90;;;;;;4914898;29;20385;-92
2021/09/30 08:20:55;;;;;;;14.85;1.90;;;11.30;99.90;;;;;;4898378;29;20051;-92
2021/09/30 08:23:23;;;;;;;12.88;1.73;;;11.30;99.90;;;;;;4915188;29;20050;-94
2021/09/30 08:25:48;;;;;;;12.25;1.75;;;11.40;99.90;;;;;;4914364;29;20051;-93
2021/09/30 08:28:14;;;;;;;15.38;2.17;;;11.40;99.90;;;;;;4883338;29;20489;-90
2021/09/30 08:30:40;;;;;;;10.25;2.05;;;11.50;99.90;;;;;;4883428;29;20036;-91
2021/09/30 08:33:10;;;;;;;10.65;2.15;;;11.50;99.90;;;;;;4913013;29;20074;-91
2021/09/30 08:35:37;;;;;;;15.18;1.80;;;11.60;99.90;;;;;;4898338;29;20043;-90
2021/09/30 08:38:04;;;;;;;11.18;1.95;;;11.70;99.90;;;;;;4913785;29;20171;-90
2021/09/30 08:40:30;;;;;;;11.35;1.90;;;11.70;99.90;;;;;;4899252;29;20048;-93
2021/09/30 08:42:56;;;;;;;17.67;2.17;;;11.70;99.90;;;;;;4914136;29;20044;-92
2021/09/30 08:45:22;;;;;;;13.32;1.95;;;11.80;99.90;;;;;;4899523;29;20052;-96
2021/09/30 08:48:02;;;;;;;13.90;2.67;;;11.90;99.90;;;;;;4913921;29;20055;-92
2021/09/30 08:50:30;;;;;;;18.17;2.53;;;11.90;99.90;;;;;;4913775;29;20081;-93
2021/09/30 08:52:56;;;;;;;15.13;3.13;;;12.00;99.90;;;;;;4883155;29;20453;-92
2021/09/30 08:55:22;;;;;;;9.15;1.75;;;12.10;99.90;;;;;;4883225;29;20044;-93
2021/09/30 08:57:49;;;;;;;14.80;1.83;;;12.10;99.90;;;;;;4929340;29;20043;-93
2021/09/30 09:00:18;;;;;;;11.93;1.90;;;12.20;99.90;;;;;;4882465;29;20044;-92
2021/09/30 09:02:46;;;;;;;11.48;2.42;;;12.30;99.90;;;;;;4897669;29;20087;-91
2021/09/30 09:05:12;;;;;;;13.48;1.90;;;12.30;99.90;;;;;;4895825;29;20122;-93
2021/09/30 09:07:38;;;;;;;10.98;2.20;;;12.40;99.90;;;;;;4908704;29;20480;-94
2021/09/30 09:10:10;;;;;;;12.15;2.42;;;12.50;99.90;;;;;;4913622;29;20163;-93
2021/09/30 09:12:37;;;;;;;15.50;1.88;;;12.50;99.90;;;;;;4883734;29;20496;-94
2021/09/30 09:15:04;;;;;;;10.15;1.92;;;12.50;99.90;;;;;;4912951;29;20113;-91
2021/09/30 09:17:29;;;;;;;7.85;1.98;;;12.60;99.90;;;;;;4896939;29;20122;-96
2021/09/30 09:19:58;;;;;;;13.40;2.55;;;12.60;99.90;;;;;;4886461;29;20544;-94
2021/09/30 09:22:30;;;;;;;13.35;2.60;;;12.80;99.90;;;;;;4918642;29;20048;-89
2021/09/30 09:25:16;;;;;;;11.80;1.88;;;12.80;99.90;;;;;;4922784;29;20055;-95
2021/09/30 09:27:48;;;;;;;11.98;1.58;;;12.80;99.90;;;;;;4922053;29;20044;-93
2021/09/30 09:33:15;;;;;;;8.55;1.80;;;13.10;99.90;;;;;;5039105;23;20046;-90
2021/09/30 09:38:17;;;;;;;12.68;2.30;;;13.20;99.90;;;;;;5763632;23;20058;-90
2021/09/30 09:40:43;;;;;;;11.32;2.03;;;13.20;99.90;;;;;;4988211;28;20065;-93
2021/09/30 09:46:38;;;;;;;11.82;1.92;;;13.20;99.90;;;;;;5800372;23;20060;-92
2021/09/30 09:55:47;;;;;;;8.32;1.83;;;13.30;99.90;;;;;;5022052;23;20496;31
2021/09/30 09:58:18;;;;;;;15.20;2.45;;;13.40;99.90;;;;;;4832645;29;20148;-96
2021/09/30 10:00:50;;;;;;;9.98;1.83;;;13.40;99.90;;;;;;4853647;29;20102;-96
2021/09/30 10:03:22;;;;;;;4.85;1.20;;;13.40;99.90;;;;;;4840703;29;20050;-91
2021/09/30 10:05:49;;;;;;;12.02;1.52;;;13.50;99.90;;;;;;4823308;29;20132;-94
2021/09/30 10:08:16;;;;;;;7.63;1.95;;;13.90;99.90;;;;;;4835450;29;20571;-95
2021/09/30 10:10:44;;;;;;;9.55;1.67;;;14.00;99.90;;;;;;4812099;29;20543;-96
2021/09/30 10:13:09;;;;;;;8.32;1.67;;;14.20;99.90;;;;;;4831823;29;20046;-96
2021/09/30 10:15:37;;;;;;;4.20;1.08;;;14.20;99.90;;;;;;4858662;29;20033;-93
2021/09/30 10:18:05;;;;;;;5.60;1.33;;;14.10;99.90;;;;;;4817809;29;20056;-95
2021/09/30 10:20:32;;;;;;;6.72;1.50;;;14.20;99.90;;;;;;4831544;29;20098;-96
2021/09/30 10:22:58;;;;;;;4.45;0.90;;;14.20;99.90;;;;;;4847473;29;20131;-96
2021/09/30 10:25:36;;;;;;;6.03;1.35;;;14.30;99.90;;;;;;4829126;29;20061;-93
2021/09/30 10:28:03;;;;;;;5.75;1.15;;;14.30;99.90;;;;;;4811772;29;20093;-95
2021/09/30 10:30:40;;;;;;;7.72;2.05;;;14.30;99.90;;;;;;4808711;29;20045;-93
2021/09/30 10:33:14;;;;;;;12.73;1.70;;;14.40;99.90;;;;;;4826055;29;20045;-94
2021/09/30 10:35:46;;;;;;;4.50;1.30;;;14.30;99.90;;;;;;4826711;29;20053;-92
2021/09/30 10:38:17;;;;;;;6.90;1.38;;;14.30;99.90;;;;;;4828935;29;20474;-93
2021/09/30 10:41:02;;;;;;;8.75;1.58;;;14.30;99.90;;;;;;4823949;29;20058;-95
2021/09/30 10:43:29;;;;;;;9.80;1.67;;;14.30;99.90;;;;;;4838616;29;20429;-94
2021/09/30 10:45:56;;;;;;;11.80;1.40;;;14.30;99.90;;;;;;4833799;29;20456;-92
2021/09/30 10:48:26;;;;;;;8.88;1.40;;;14.40;99.90;;;;;;4839462;29;20081;-96
2021/09/30 10:51:09;;;;;;;11.30;1.45;;;14.40;99.90;;;;;;4824270;29;20380;-94
2021/09/30 10:53:47;;;;;;;8.88;1.38;;;14.50;99.90;;;;;;4816197;29;20057;-96
2021/09/30 10:56:31;;;;;;;9.25;1.52;;;14.40;99.90;;;;;;4813589;29;20105;-92
2021/09/30 10:59:09;;;;;;;7.18;1.08;;;14.40;99.90;;;;;;4821906;29;20054;-93
2021/09/30 11:01:47;;;;;;;8.88;1.48;;;14.40;99.90;;;;;;4816745;29;20042;-96
2021/09/30 11:04:16;;;;;;;7.88;1.40;;;14.40;99.90;;;;;;4811163;29;20045;-94
2021/09/30 11:07:02;;;;;;;8.02;1.55;;;14.40;99.90;;;;;;4809093;29;20049;-94
2021/09/30 11:09:28;;;;;;;11.70;1.25;;;14.50;99.90;;;;;;4827870;29;20069;-92
2021/09/30 11:12:10;;;;;;;4.10;1.40;;;14.50;99.90;;;;;;4816010;29;20487;-94
2021/09/30 11:15:05;;;;;;;8.82;2.22;;;14.50;99.90;;;;;;4821654;29;20514;-93
2021/09/30 11:17:39;;;;;;;6.43;1.80;;;14.60;99.90;;;;;;4785174;29;20420;-96
2021/09/30 11:20:30;;;;;;;9.43;1.33;;;14.70;99.90;;;;;;4806094;29;20077;-96
2021/09/30 11:22:55;;;;;;;5.45;1.17;;;14.90;99.90;;;;;;4823116;29;20201;-93
2021/09/30 11:25:21;;;;;;;6.57;1.00;;;15.10;99.90;;;;;;4807716;29;20077;-93
2021/09/30 11:28:06;;;;;;;4.65;0.90;;;15.30;99.90;;;;;;4808733;29;20053;-95
2021/09/30 11:30:32;;;;;;;4.45;1.20;;;15.30;99.90;;;;;;4810818;29;20146;-94
2021/09/30 11:32:59;;;;;;;10.38;1.45;;;15.40;99.90;;;;;;4795991;29;20132;-92
2021/09/30 11:35:25;;;;;;;7.97;1.10;;;15.40;99.90;;;;;;4809519;29;20060;-94
2021/09/30 11:37:51;;;;;;;6.50;1.35;;;15.50;99.90;;;;;;4839723;29;20050;-94
2021/09/30 11:40:18;;;;;;;5.93;0.98;;;15.50;99.90;;;;;;4812193;29;20046;-95
2021/09/30 11:42:48;;;;;;;8.60;1.08;;;15.40;99.90;;;;;;4823781;29;20062;-93
2021/09/30 11:45:21;;;;;;;5.03;1.03;;;15.40;99.90;;;;;;4823155;29;20081;-96
2021/09/30 11:47:48;;;;;;;5.40;1.33;;;15.30;99.90;;;;;;4841400;29;20124;-92
2021/09/30 11:50:21;;;;;;;7.90;1.30;;;15.30;99.90;;;;;;4824693;29;20053;-95
2021/09/30 11:53:05;;;;;;;7.80;1.10;;;15.30;99.90;;;;;;4815121;29;20074;-94
2021/09/30 11:55:33;;;;;;;9.07;1.30;;;15.30;99.90;;;;;;4810613;29;20443;-93
2021/09/30 11:58:03;;;;;;;7.65;1.10;;;15.30;99.90;;;;;;4830275;29;20126;-90
2021/09/30 12:00:29;;;;;;;8.40;1.63;;;15.40;99.90;;;;;;4821557;29;20498;-94
2021/09/30 12:03:02;;;;;;;3.83;0.70;;;15.40;99.90;;;;;;4816256;29;20133;-93
2021/09/30 12:05:31;;;;;;;3.00;0.85;;;15.50;99.90;;;;;;4811007;29;20057;-92
2021/09/30 12:07:58;;;;;;;7.50;1.30;;;15.60;99.90;;;;;;4839055;29;20081;-93
2021/09/30 12:10:25;;;;;;;5.82;1.35;;;15.60;99.90;;;;;;4826601;29;20356;-92
2021/09/30 12:12:51;;;;;;;6.65;1.05;;;15.70;99.90;;;;;;4807285;29;20075;-91
2021/09/30 12:15:17;;;;;;;4.72;1.25;;;15.80;99.90;;;;;;4822132;29;20060;-94
2021/09/30 12:17:43;;;;;;;6.53;1.42;;;15.90;99.90;;;;;;4807222;29;20050;-90
2021/09/30 12:20:13;;;;;;;6.82;1.33;;;15.90;99.90;;;;;;4821969;29;20053;-90
2021/09/30 12:22:41;;;;;;;3.40;0.95;;;15.90;99.90;;;;;;4823092;29;20647;-92
2021/09/30 12:25:08;;;;;;;5.97;1.38;;;15.80;99.90;;;;;;4822116;29;20054;-92
2021/09/30 12:27:36;;;;;;;10.30;1.10;;;15.70;99.90;;;;;;4822648;29;20061;-94
2021/09/30 12:30:21;;;;;;;5.75;1.00;;;15.70;99.90;;;;;;4822836;29;20137;-89
2021/09/30 12:32:53;;;;;;;7.00;1.17;;;15.70;99.90;;;;;;4822728;29;20098;-94
2021/09/30 12:35:21;;;;;;;4.95;0.98;;;15.80;99.90;;;;;;4806582;29;20089;-92
2021/09/30 12:37:50;;;;;;;6.60;1.35;;;15.80;99.90;;;;;;4822116;29;20086;-92
2021/09/30 12:40:26;;;;;;;7.37;0.93;;;15.90;99.90;;;;;;4821106;29;20563;-93
2021/09/30 12:43:13;;;;;;;6.43;1.30;;;16.00;99.90;;;;;;4822538;29;20054;-91
2021/09/30 12:45:41;;;;;;;6.93;1.05;;;16.20;99.90;;;;;;4822403;29;20823;-92
2021/09/30 12:48:16;;;;;;;7.05;1.33;;;16.50;99.90;;;;;;4803767;29;20066;-90
2021/09/30 12:50:51;;;;;;;8.13;1.48;;;16.60;99.90;;;;;;4834819;29;20523;-94
2021/09/30 12:53:19;;;;;;;6.35;1.00;;;16.80;99.90;;;;;;4808405;29;20054;-91
2021/09/30 12:55:47;;;;;;;13.10;1.52;;;17.00;99.90;;;;;;4830351;29;20052;-93
2021/09/30 12:58:31;;;;;;;11.20;1.45;;;17.00;99.90;;;;;;4814164;29;20180;-93
2021/09/30 13:00:59;;;;;;;11.65;1.80;;;17.00;99.90;;;;;;4825315;29;20047;-93
2021/09/30 13:03:25;;;;;;;4.82;1.05;;;16.90;99.90;;;;;;4840296;29;20534;-92
2021/09/30 13:05:54;;;;;;;8.05;1.50;;;16.80;99.90;;;;;;4825350;29;20593;-93
2021/09/30 13:08:43;;;;;;;2.75;0.95;;;16.80;99.90;;;;;;4806905;29;20054;-93
2021/09/30 13:11:31;;;;;;;11.55;1.52;;;16.70;99.90;;;;;;4812488;29;20096;-90
2021/09/30 13:14:30;;;;;;;5.72;1.10;;;16.50;99.90;;;;;;4825309;29;20053;-93
2021/09/30 13:16:57;;;;;;;10.80;1.25;;;16.50;99.90;;;;;;4825409;29;20495;-93
2021/09/30 13:19:41;;;;;;;9.55;1.20;;;16.50;99.90;;;;;;4824152;29;20133;-90
2021/09/30 13:22:07;;;;;;;10.18;1.67;;;16.60;99.90;;;;;;4824959;29;20707;-91
2021/09/30 13:24:38;;;;;;;9.05;1.33;;;16.70;99.90;;;;;;4808587;29;20061;-92
2021/09/30 13:27:09;;;;;;;7.60;1.60;;;16.90;99.90;;;;;;4841109;29;20053;-90
2021/09/30 13:29:36;;;;;;;5.57;1.00;;;16.90;99.90;;;;;;4822833;29;20623;-91
2021/09/30 13:32:02;;;;;;;6.78;1.85;;;16.90;99.90;;;;;;4824857;29;20060;-94
2021/09/30 13:34:28;;;;;;;6.57;1.33;;;17.00;99.90;;;;;;4810544;29;20050;-92
2021/09/30 13:36:53;;;;;;;6.05;1.65;;;17.20;99.90;;;;;;4811872;29;20053;-89
2021/09/30 13:39:19;;;;;;;9.13;2.13;;;17.30;99.90;;;;;;4835211;29;20060;-94
2021/09/30 13:41:45;;;;;;;7.55;1.10;;;17.10;99.90;;;;;;4811879;29;20045;-92
2021/09/30 13:44:11;;;;;;;4.88;1.70;;;17.00;99.90;;;;;;4831281;29;20062;-88
2021/09/30 13:46:37;;;;;;;6.47;1.40;;;17.10;99.90;;;;;;4826810;29;20041;-93
2021/09/30 13:49:03;;;;;;;16.00;1.63;;;17.00;99.90;;;;;;4819291;29;20578;-91
2021/09/30 13:51:33;;;;;;;7.50;1.83;;;16.90;99.90;;;;;;4812847;29;20879;-91
2021/09/30 13:53:59;;;;;;;8.95;1.60;;;16.80;99.90;;;;;;4794399;29;20050;-91
2021/09/30 13:56:26;;;;;;;9.68;1.45;;;16.70;99.90;;;;;;4798898;29;20068;-93
2021/09/30 13:58:52;;;;;;;9.32;1.65;;;16.60;99.90;;;;;;4837169;29;20137;-94
2021/09/30 14:01:19;;;;;;;12.05;1.50;;;16.50;99.90;;;;;;4827597;29;20049;-94
2021/09/30 14:03:44;;;;;;;8.02;1.90;;;16.50;99.90;;;;;;4829011;29;20041;-91
2021/09/30 14:06:12;;;;;;;4.93;1.48;;;16.40;99.90;;;;;;4839469;29;20057;-95
2021/09/30 14:08:41;;;;;;;8.05;1.40;;;16.30;99.90;;;;;;4824285;29;20109;-93
2021/09/30 14:11:13;;;;;;;10.98;1.67;;;16.20;99.90;;;;;;4811959;29;20134;-94
2021/09/30 14:13:40;;;;;;;7.50;1.40;;;16.10;99.90;;;;;;4821855;29;20149;-94
2021/09/30 14:16:05;;;;;;;9.30;1.70;;;15.90;99.90;;;;;;4822414;29;20102;-94
2021/09/30 14:18:31;;;;;;;7.03;1.65;;;15.80;99.90;;;;;;4815540;29;20057;-93
2021/09/30 14:20:57;;;;;;;6.95;1.40;;;15.70;99.90;;;;;;4811574;29;20110;-92
2021/09/30 14:23:25;;;;;;;13.65;1.77;;;15.50;99.90;;;;;;4801869;29;20061;-91
2021/09/30 14:25:51;;;;;;;6.22;1.33;;;15.30;99.90;;;;;;4816853;29;20626;-91
2021/09/30 14:28:18;;;;;;;5.22;1.27;;;15.20;99.90;;;;;;4815062;29;20201;-89
2021/09/30 14:30:43;;;;;;;4.13;1.42;;;15.00;99.90;;;;;;4816427;29;20053;-93
2021/09/30 14:33:09;;;;;;;5.60;1.35;;;14.80;99.90;;;;;;4820653;29;20101;-92
2021/09/30 14:35:36;;;;;;;9.77;1.23;;;14.60;99.90;;;;;;4824154;29;20664;-93
2021/09/30 14:38:02;;;;;;;8.35;1.52;;;14.40;99.90;;;;;;4817151;29;20169;-94
2021/09/30 14:40:28;;;;;;;7.57;1.65;;;14.40;99.90;;;;;;4830879;29;20705;-92
2021/09/30 14:42:53;;;;;;;7.93;1.40;;;14.40;99.90;;;;;;4817672;29;20133;-96
2021/09/30 14:45:19;;;;;;;6.40;1.08;;;14.40;99.90;;;;;;4789523;29;20054;-91
2021/09/30 14:47:45;;;;;;;7.97;1.33;;;14.30;99.90;;;;;;4812490;29;20102;-91
2021/09/30 14:50:11;;;;;;;4.40;1.38;;;14.20;99.90;;;;;;4809747;29;20061;-91
2021/09/30 14:52:36;;;;;;;6.13;1.23;;;14.20;99.90;;;;;;4805795;29;20061;-95
2021/09/30 14:55:04;;;;;;;8.57;1.27;;;14.10;99.90;;;;;;4812157;29;20046;-92
2021/09/30 14:57:29;;;;;;;7.35;1.30;;;14.00;99.90;;;;;;4806260;29;20086;-93
2021/09/30 14:59:55;;;;;;;6.38;1.15;;;14.00;99.90;;;;;;4807904;29;20089;-92
2021/09/30 15:02:21;;;;;;;6.10;1.15;;;14.00;99.90;;;;;;4806233;29;20534;-91
2021/09/30 15:04:47;;;;;;;5.13;1.67;;;14.00;99.90;;;;;;4805947;29;20073;-93
2021/09/30 15:07:12;;;;;;;10.43;1.98;;;13.90;99.90;;;;;;4811848;29;20042;-93
2021/09/30 15:09:38;;;;;;;10.52;1.77;;;13.80;99.90;;;;;;4820200;29;20248;-94
2021/09/30 15:12:04;;;;;;;4.80;1.27;;;13.70;99.90;;;;;;4820506;29;20053;-94
2021/09/30 15:14:30;;;;;;;6.95;1.33;;;13.60;99.90;;;;;;4808719;29;20049;-92
2021/09/30 15:16:59;;;;;;;6.00;1.63;;;13.50;99.90;;;;;;4824735;29;20055;-92
2021/09/30 15:19:28;;;;;;;7.53;1.33;;;13.40;99.90;;;;;;4830345;29;20049;-93
2021/09/30 15:21:54;;;;;;;9.60;1.20;;;13.30;99.90;;;;;;4832103;29;20038;-93
2021/09/30 15:24:21;;;;;;;8.38;1.55;;;13.20;99.90;;;;;;4818412;29;20037;-92
2021/09/30 15:29:35;;;;;;;10.00;1.92;;;13.00;99.90;;;;;;5011529;23;20060;-92
2021/09/30 15:38:11;;;;;;;10.45;1.80;;;12.80;99.90;;;;;;5168662;23;20024;31
2021/09/30 15:40:40;;;;;;;6.60;1.20;;;12.70;99.90;;;;;;5231017;23;20185;-93
2021/09/30 15:43:09;;;;;;;11.38;1.40;;;12.60;99.90;;;;;;4843817;29;20037;-93
2021/09/30 15:45:35;;;;;;;8.65;1.98;;;12.60;99.90;;;;;;4891234;24;20056;-92
2021/09/30 15:51:29;;;;;;;5.60;1.40;;;12.50;99.90;;;;;;4853089;29;20065;-92
2021/09/30 15:56:31;;;;;;;10.07;1.40;;;12.40;99.90;;;;;;5001402;23;20116;-94
2021/09/30 15:58:59;;;;;;;10.05;1.90;;;12.40;99.90;;;;;;4903335;29;20037;-93
2021/09/30 16:01:29;;;;;;;13.30;1.88;;;12.40;99.90;;;;;;4865146;29;20108;-93
2021/09/30 16:03:55;;;;;;;5.85;1.70;;;12.40;99.90;;;;;;4896727;29;20191;-96
2021/09/30 16:06:23;;;;;;;6.78;1.52;;;12.30;99.90;;;;;;4889936;29;20125;-93
2021/09/30 16:08:49;;;;;;;7.00;1.40;;;12.40;99.90;;;;;;4885497;29;20051;-94
2021/09/30 16:11:15;;;;;;;7.57;1.50;;;12.40;99.90;;;;;;4875213;29;20044;-93
2021/09/30 16:13:42;;;;;;;9.88;1.48;;;12.40;99.90;;;;;;4846808;29;20041;-93
2021/09/30 16:16:08;;;;;;;13.00;1.48;;;12.40;99.90;;;;;;4868142;29;20111;-91
2021/09/30 16:18:37;;;;;;;15.73;1.75;;;12.40;99.90;;;;;;4858919;29;20473;-93